Time;durP1;ratioP1;P1;durP2;ratioP2;P2;SDS_P1;SDS_P2;PMS_P1;PMS_P2;Temp;Humidity;BMP_temperature;BMP_pressure;BME280_temperature;BME280_humidity;BME280_pressure;Samples;Min_cycle;Max_cycle;Signal;HPM_P1;HPM_P2
2021/10/30 00:00:26;;;;;;;18.40;13.30;;;;;;;8.82;79.57;95663.00;5118134;28;20847;-84
2021/10/30 00:02:52;;;;;;;24.07;14.07;;;;;;;8.89;79.91;95668.69;5117978;28;20435;-84
2021/10/30 00:05:19;;;;;;;22.37;13.13;;;;;;;8.98;79.24;95657.63;5117886;28;20534;-83
2021/10/30 00:07:46;;;;;;;18.33;12.57;;;;;;;9.08;79.40;95663.06;5118084;28;20455;-84
2021/10/30 00:10:16;;;;;;;21.83;12.80;;;;;;;9.06;79.88;95668.41;5117858;28;20500;-83
2021/10/30 00:12:44;;;;;;;23.97;13.17;;;;;;;8.97;79.71;95662.03;5118667;28;20819;-84
2021/10/30 00:15:12;;;;;;;16.97;11.70;;;;;;;9.03;80.34;95660.78;5118424;28;20442;-84
2021/10/30 00:17:40;;;;;;;18.10;12.27;;;;;;;9.09;79.94;95649.88;5118083;28;20775;-83
2021/10/30 00:20:08;;;;;;;24.30;15.70;;;;;;;9.13;79.86;95647.91;5117655;28;20524;-83
2021/10/30 00:22:36;;;;;;;16.50;12.43;;;;;;;9.17;80.17;95659.84;5117722;28;20510;-83
2021/10/30 00:25:03;;;;;;;21.70;12.73;;;;;;;8.96;81.42;95655.09;5117856;28;20530;-83
2021/10/30 00:27:31;;;;;;;21.30;12.07;;;;;;;9.10;81.24;95654.19;5082063;28;20981;-83
2021/10/30 00:29:58;;;;;;;24.53;13.40;;;;;;;9.08;81.57;95645.59;5117311;28;20475;-84
2021/10/30 00:32:25;;;;;;;19.87;13.93;;;;;;;9.20;81.06;95651.78;5117402;28;20530;-84
2021/10/30 00:34:52;;;;;;;20.43;14.50;;;;;;;9.26;80.89;95646.97;5117731;28;20422;-84
2021/10/30 00:40:41;;;;;;;21.27;14.87;;;;;;;9.18;81.66;95637.94;5117476;28;20506;-83
2021/10/30 00:43:09;;;;;;;23.10;14.87;;;;;;;8.99;83.31;95639.19;5117632;28;20451;-84
2021/10/30 00:45:36;;;;;;;21.40;14.50;;;;;;;9.00;83.35;95638.25;5117217;28;20432;-83
2021/10/30 00:48:04;;;;;;;16.80;13.50;;;;;;;8.54;86.09;95635.19;5117587;28;20450;-83
2021/10/30 00:50:31;;;;;;;24.30;15.77;;;;;;;8.52;87.92;95638.84;5117521;28;20522;-83
2021/10/30 00:52:59;;;;;;;24.97;16.60;;;;;;;8.48;88.83;95647.84;5117116;28;20428;-84
2021/10/30 00:55:27;;;;;;;21.93;15.30;;;;;;;8.19;92.10;95641.81;5117175;28;20890;-83
2021/10/30 00:57:59;;;;;;;20.50;14.60;;;;;;;8.14;93.18;95646.50;5117516;28;20459;-83
2021/10/30 01:00:27;;;;;;;22.20;15.87;;;;;;;8.21;93.32;95638.16;5116724;28;20961;-83
2021/10/30 01:02:54;;;;;;;21.43;15.30;;;;;;;8.32;92.31;95643.53;5117320;28;20431;-84
2021/10/30 01:05:21;;;;;;;20.37;16.00;;;;;;;8.38;92.85;95635.34;5117047;28;20443;-84
2021/10/30 01:07:48;;;;;;;24.50;17.20;;;;;;;8.60;91.79;95637.41;5116474;28;20742;-84
2021/10/30 01:10:17;;;;;;;25.33;16.90;;;;;;;8.83;90.83;95628.06;5116791;28;20435;-83
2021/10/30 01:12:45;;;;;;;27.03;16.03;;;;;;;8.98;89.91;95629.66;5117077;28;20914;-83
2021/10/30 01:15:12;;;;;;;17.53;14.57;;;;;;;9.05;89.69;95627.47;5081394;28;20998;-83
2021/10/30 01:17:41;;;;;;;22.10;16.10;;;;;;;9.17;88.81;95626.63;5064659;28;20456;-83
2021/10/30 01:20:19;;;;;;;22.73;17.30;;;;;;;9.29;88.25;95627.59;5081043;28;20481;-84
2021/10/30 01:22:46;;;;;;;19.23;16.53;;;;;;;9.41;87.35;95629.38;5116448;28;20530;-83
2021/10/30 01:25:13;;;;;;;20.73;16.20;;;;;;;9.47;87.68;95638.59;5116952;28;21009;-83
2021/10/30 01:27:46;;;;;;;21.77;16.03;;;;;;;9.48;87.14;95627.16;5116185;28;20566;-83
2021/10/30 01:30:16;;;;;;;23.23;16.93;;;;;;;9.45;86.53;95619.53;5116750;28;20506;-83
2021/10/30 01:32:51;;;;;;;23.77;16.93;;;;;;;9.51;86.30;95626.94;5116517;28;20452;-83
2021/10/30 01:35:26;;;;;;;24.67;16.73;;;;;;;9.57;86.86;95624.78;5083651;28;20435;-83
2021/10/30 01:37:55;;;;;;;25.70;17.33;;;;;;;9.63;85.76;95628.75;5116174;28;20433;-84
2021/10/30 01:40:22;;;;;;;22.23;16.20;;;;;;;9.44;86.91;95618.69;5116778;28;20884;-84
2021/10/30 01:42:58;;;;;;;23.90;17.00;;;;;;;9.32;89.00;95623.00;5116584;28;20846;-84
2021/10/30 01:45:26;;;;;;;24.50;18.80;;;;;;;9.21;89.47;95612.38;5116067;28;20488;-84
2021/10/30 01:47:53;;;;;;;26.70;19.67;;;;;;;9.08;91.64;95613.34;5116439;28;20867;-84
2021/10/30 01:50:22;;;;;;;25.83;19.97;;;;;;;9.15;91.66;95610.19;5115927;28;20442;-83
2021/10/30 01:52:50;;;;;;;27.90;18.87;;;;;;;9.32;89.77;95601.19;5116290;28;20450;-83
2021/10/30 01:55:18;;;;;;;25.33;18.30;;;;;;;9.50;89.63;95617.41;5115816;28;20526;-84
2021/10/30 01:57:45;;;;;;;30.00;20.50;;;;;;;9.61;88.30;95620.16;5115333;28;20428;-83
2021/10/30 02:00:14;;;;;;;30.30;19.50;;;;;;;9.60;88.79;95618.47;5116039;28;21072;-84
2021/10/30 02:02:41;;;;;;;23.73;18.80;;;;;;;9.68;87.55;95623.19;5115817;28;20985;-84
2021/10/30 02:05:09;;;;;;;22.50;17.57;;;;;;;9.75;87.75;95627.03;5115994;28;20910;-83
2021/10/30 02:07:38;;;;;;;28.50;19.80;;;;;;;9.76;87.70;95619.06;5080492;28;20864;-84
2021/10/30 02:10:06;;;;;;;24.23;18.43;;;;;;;9.73;87.83;95618.44;5115100;28;21160;-83
2021/10/30 02:12:33;;;;;;;32.33;24.87;;;;;;;9.75;87.10;95621.78;5115285;28;20443;-84
2021/10/30 02:15:00;;;;;;;25.10;16.97;;;;;;;9.53;88.12;95618.03;5115489;28;20435;-84
2021/10/30 02:17:27;;;;;;;23.20;17.30;;;;;;;9.58;87.48;95612.50;5115443;28;20535;-83
2021/10/30 02:19:54;;;;;;;28.63;21.67;;;;;;;9.54;87.79;95605.78;5115286;28;20961;-83
2021/10/30 02:22:21;;;;;;;21.87;17.63;;;;;;;9.59;88.00;95620.25;5115300;28;20427;-84
2021/10/30 02:24:50;;;;;;;19.63;15.03;;;;;;;9.57;87.42;95605.59;5115782;28;20981;-83
2021/10/30 02:30:38;;;;;;;20.07;15.53;;;;;;;9.61;87.94;95620.16;5115656;28;20387;-83
2021/10/30 02:33:06;;;;;;;22.50;14.70;;;;;;;9.57;87.64;95611.66;5115815;28;20444;-84
2021/10/30 02:35:33;;;;;;;24.40;16.70;;;;;;;9.55;88.46;95617.97;5114916;28;20481;-84
2021/10/30 02:38:00;;;;;;;19.30;15.30;;;;;;;9.50;88.40;95618.25;5079451;28;20434;-83
2021/10/30 02:40:29;;;;;;;20.90;16.10;;;;;;;9.52;88.38;95618.16;5114939;28;20484;-84
2021/10/30 02:42:55;;;;;;;23.10;15.00;;;;;;;9.53;87.99;95617.19;5115264;28;20451;-83
2021/10/30 02:45:22;;;;;;;21.47;15.20;;;;;;;9.56;87.73;95617.03;5115142;28;20450;-83
2021/10/30 02:47:50;;;;;;;18.03;14.60;;;;;;;9.58;87.67;95613.34;5114694;28;20796;-83
2021/10/30 02:50:17;;;;;;;23.70;17.27;;;;;;;9.58;87.52;95618.59;5115723;28;20455;-83
2021/10/30 02:52:44;;;;;;;24.87;18.70;;;;;;;9.66;87.28;95620.66;5114770;28;20877;-83
2021/10/30 02:55:11;;;;;;;25.00;18.90;;;;;;;9.68;86.86;95626.63;5115119;28;20547;-83
2021/10/30 02:57:46;;;;;;;27.80;18.27;;;;;;;9.72;86.84;95615.00;5115140;28;20447;-83
2021/10/30 03:03:35;;;;;;;21.53;17.10;;;;;;;9.69;86.53;95627.47;5114890;28;20545;-84
2021/10/30 03:06:02;;;;;;;25.47;18.20;;;;;;;9.66;86.24;95622.44;5115164;28;20442;-84
2021/10/30 03:08:29;;;;;;;38.83;18.73;;;;;;;9.60;86.19;95618.47;5114417;28;20449;-83
2021/10/30 03:10:56;;;;;;;22.30;17.37;;;;;;;9.60;86.55;95621.09;5114402;28;20436;-84
2021/10/30 03:13:25;;;;;;;23.33;17.10;;;;;;;9.58;86.54;95623.00;5114523;28;20530;-83
2021/10/30 03:15:52;;;;;;;24.07;16.43;;;;;;;9.61;86.47;95628.84;5079089;28;20435;-83
2021/10/30 03:18:19;;;;;;;25.63;17.07;;;;;;;9.57;86.24;95616.91;5114657;28;20458;-83
2021/10/30 03:20:45;;;;;;;26.20;16.50;;;;;;;9.60;86.43;95621.09;5114416;28;20831;-83
2021/10/30 03:23:12;;;;;;;28.87;16.87;;;;;;;9.58;86.67;95618.59;5114140;28;20940;-83
2021/10/30 03:25:39;;;;;;;28.83;18.10;;;;;;;9.63;86.48;95615.63;5114556;28;20445;-83
2021/10/30 03:28:07;;;;;;;26.73;17.80;;;;;;;9.65;86.68;95621.63;5114816;28;20783;-83
2021/10/30 03:30:36;;;;;;;24.77;15.87;;;;;;;9.71;85.74;95618.56;5114375;28;20530;-83
2021/10/30 03:33:03;;;;;;;27.27;18.70;;;;;;;9.70;85.92;95616.88;5114219;28;20463;-83
2021/10/30 03:35:30;;;;;;;24.50;15.77;;;;;;;9.70;85.76;95619.50;5114194;28;20534;-81
2021/10/30 03:37:57;;;;;;;26.03;16.10;;;;;;;9.69;86.13;95620.44;5062520;28;20454;-84
2021/10/30 03:40:24;;;;;;;22.40;16.63;;;;;;;9.61;86.32;95612.28;5114467;28;20485;-82
2021/10/30 03:42:51;;;;;;;26.03;17.40;;;;;;;9.54;86.72;95618.88;5114391;28;20431;-80
2021/10/30 03:45:18;;;;;;;25.27;18.63;;;;;;;9.54;88.10;95618.88;5114398;28;20439;-82
2021/10/30 03:47:47;;;;;;;24.47;18.33;;;;;;;9.61;87.16;95628.84;5114496;28;20431;-83
2021/10/30 03:50:14;;;;;;;22.10;15.53;;;;;;;9.59;86.50;95622.03;5114157;28;20511;-84
2021/10/30 03:52:41;;;;;;;24.67;15.23;;;;;;;9.58;86.01;95630.84;5078634;28;20450;-81
2021/10/30 03:55:09;;;;;;;24.70;17.10;;;;;;;9.54;86.09;95625.00;5114485;28;20935;-83
2021/10/30 03:57:36;;;;;;;22.17;14.77;;;;;;;9.54;86.99;95630.22;5079412;28;20518;-83
2021/10/30 04:00:04;;;;;;;22.90;15.80;;;;;;;9.54;86.63;95635.47;5078980;28;20471;-84
2021/10/30 04:02:31;;;;;;;27.40;15.60;;;;;;;9.47;86.75;95628.09;5114798;28;20443;-84
2021/10/30 04:05:00;;;;;;;25.47;17.60;;;;;;;9.22;88.53;95626.31;5114087;28;20446;-84
2021/10/30 04:07:27;;;;;;;23.17;14.83;;;;;;;8.78;90.92;95621.44;5114392;28;20431;-84
2021/10/30 04:09:54;;;;;;;25.77;17.60;;;;;;;8.91;90.94;95625.75;5114275;28;20473;-84
2021/10/30 04:16:34;;;;;;;25.33;17.27;;;;;;;9.05;90.21;95617.00;5114201;28;20391;-84
2021/10/30 04:19:01;;;;;;;21.77;15.10;;;;;;;8.97;91.08;95619.31;5114332;28;20777;-82
2021/10/30 04:21:30;;;;;;;32.13;19.10;;;;;;;8.83;91.50;95611.50;5095917;28;20490;-84
2021/10/30 04:23:58;;;;;;;23.17;16.10;;;;;;;8.62;92.50;95608.53;5114418;28;20435;-84
2021/10/30 04:26:26;;;;;;;43.70;21.57;;;;;;;8.60;92.26;95611.25;5113470;28;20475;-84
2021/10/30 04:28:53;;;;;;;25.80;17.57;;;;;;;8.60;93.10;95615.63;5114197;28;20442;-85
2021/10/30 04:31:22;;;;;;;27.60;19.10;;;;;;;8.52;93.13;95610.91;5114426;28;20474;-85
2021/10/30 04:33:52;;;;;;;25.80;17.77;;;;;;;8.49;93.68;95629.44;5115250;28;20450;-86
2021/10/30 04:36:19;;;;;;;27.97;18.03;;;;;;;8.64;92.69;95617.94;5117624;28;20534;-85
2021/10/30 04:38:48;;;;;;;27.30;17.73;;;;;;;8.50;92.67;95607.56;5117992;28;20534;-84
2021/10/30 04:41:22;;;;;;;24.37;17.57;;;;;;;8.53;92.75;95609.97;5117637;28;20466;-86
2021/10/30 04:43:49;;;;;;;26.80;17.87;;;;;;;8.47;92.98;95609.53;5118295;28;20449;-85
2021/10/30 04:46:18;;;;;;;28.93;17.20;;;;;;;8.54;92.60;95616.03;5117925;28;20890;-84
2021/10/30 04:48:46;;;;;;;26.20;16.67;;;;;;;8.61;92.67;95612.91;5117607;28;20436;-83
2021/10/30 04:51:13;;;;;;;31.37;17.37;;;;;;;8.64;91.71;95612.72;5117575;28;20432;-84
2021/10/30 04:53:43;;;;;;;46.27;20.97;;;;;;;8.59;91.85;95603.50;5117662;28;20454;-84
2021/10/30 04:56:12;;;;;;;36.30;22.48;;;;;;;8.77;91.99;95614.53;5116420;28;20993;-84
2021/10/30 04:58:43;;;;;;;30.07;20.90;;;;;;;8.84;90.20;95602.72;5117576;28;20188;-85
2021/10/30 05:01:11;;;;;;;29.67;18.73;;;;;;;8.57;90.55;95608.84;5117262;28;20507;-84
2021/10/30 05:03:38;;;;;;;28.53;19.50;;;;;;;8.44;91.88;95604.50;5117087;28;20436;-84
2021/10/30 05:06:05;;;;;;;29.13;19.37;;;;;;;8.37;92.16;95614.50;5117640;28;20490;-84
2021/10/30 05:08:32;;;;;;;38.63;20.23;;;;;;;8.43;91.20;95610.69;5117240;28;20807;-84
2021/10/30 05:10:59;;;;;;;32.20;19.17;;;;;;;8.39;91.83;95612.66;5116436;28;20505;-84
2021/10/30 05:13:27;;;;;;;34.90;21.73;;;;;;;8.51;91.00;95619.69;5116532;28;20951;-84
2021/10/30 05:15:54;;;;;;;34.43;20.47;;;;;;;8.42;91.39;95612.47;5116588;28;20835;-83
2021/10/30 05:18:21;;;;;;;37.37;21.10;;;;;;;8.17;92.27;95612.31;5116485;28;20483;-84
2021/10/30 05:20:48;;;;;;;39.33;28.00;;;;;;;8.91;100.00;95617.06;5115726;28;20961;-82
2021/10/30 05:23:15;;;;;;;34.40;22.77;;;;;;;9.25;100.00;95619.13;5116915;28;20427;-85
2021/10/30 05:25:42;;;;;;;41.53;22.33;;;;;;;9.46;98.83;95626.44;5117109;28;20454;-85
2021/10/30 05:28:09;;;;;;;32.73;17.90;;;;;;;10.11;89.68;95629.69;5117183;28;20443;-85
2021/10/30 05:33:59;;;;;;;25.40;17.30;;;;;;;12.47;77.38;95633.75;5115538;28;20453;-83
2021/10/30 05:36:28;;;;;;;32.67;23.40;;;;;;;13.03;71.49;95637.88;5116252;28;20449;-84
2021/10/30 05:38:55;;;;;;;27.47;18.60;;;;;;;13.54;70.43;95634.50;5116461;28;20452;-85
2021/10/30 05:41:23;;;;;;;30.30;25.30;;;;;;;14.25;68.12;95634.56;5116416;28;20834;-85
2021/10/30 05:43:50;;;;;;;33.10;22.37;;;;;;;14.93;66.22;95621.50;5116859;28;20815;-84
2021/10/30 05:46:18;;;;;;;25.13;19.33;;;;;;;15.59;62.49;95629.53;5116774;28;20443;-84
2021/10/30 05:48:46;;;;;;;20.70;14.63;;;;;;;15.92;60.10;95623.75;5116383;28;20443;-84
2021/10/30 05:51:14;;;;;;;20.27;16.30;;;;;;;16.38;57.94;95627.31;5116783;28;20851;-85
2021/10/30 05:53:42;;;;;;;23.13;15.13;;;;;;;16.61;56.81;95623.28;5116347;28;20526;-85
2021/10/30 05:56:09;;;;;;;20.37;14.20;;;;;;;16.32;55.77;95623.44;5115979;28;20522;-86
2021/10/30 05:58:36;;;;;;;22.77;14.90;;;;;;;16.58;56.64;95615.63;5115967;28;20511;-83
2021/10/30 06:01:04;;;;;;;19.70;12.60;;;;;;;17.65;72.99;95624.41;5115992;28;20541;-85
2021/10/30 06:06:54;;;;;;;16.40;12.50;;;;;;;17.82;51.80;95622.72;5115960;28;20437;-84
2021/10/30 06:09:21;;;;;;;18.20;12.70;;;;;;;16.37;54.98;95623.81;5115860;28;20440;-85
2021/10/30 06:11:48;;;;;;;11.27;10.17;;;;;;;15.88;57.20;95625.00;5115778;28;20527;-84
2021/10/30 06:14:15;;;;;;;13.27;10.80;;;;;;;15.80;57.49;95635.47;5116145;28;20435;-85
2021/10/30 06:16:42;;;;;;;17.60;14.97;;;;;;;14.47;60.46;95630.91;5115723;28;20841;-84
2021/10/30 06:19:09;;;;;;;22.37;13.90;;;;;;;13.93;62.92;95624.16;5115673;28;20602;-84
2021/10/30 06:21:36;;;;;;;16.60;11.30;;;;;;;13.76;64.40;95622.13;5115996;28;20558;-85
2021/10/30 06:24:05;;;;;;;16.87;12.87;;;;;;;13.54;65.40;95621.31;5115844;28;20447;-85
2021/10/30 06:26:32;;;;;;;16.17;11.40;;;;;;;13.53;65.81;95624.91;5115850;28;20482;-85
2021/10/30 06:28:59;;;;;;;18.23;11.50;;;;;;;13.15;66.43;95624.63;5080096;28;20447;-85
2021/10/30 06:38:09;;;;;;;15.23;10.17;;;;;;;13.06;66.83;95628.03;5115196;28;20391;-84
2021/10/30 06:40:37;;;;;;;15.27;10.67;;;;;;;12.93;66.38;95630.84;5115323;28;20524;-84
2021/10/30 06:43:04;;;;;;;13.93;10.23;;;;;;;12.63;66.57;95624.47;5096413;28;20964;-84
2021/10/30 06:45:31;;;;;;;22.63;9.97;;;;;;;12.54;68.10;95632.31;5114943;28;20434;-84
2021/10/30 06:47:58;;;;;;;13.87;9.90;;;;;;;12.91;67.84;95638.03;5115002;28;20438;-84
2021/10/30 06:50:25;;;;;;;18.27;14.60;;;;;;;13.17;70.03;95634.13;5114568;28;21008;-84
2021/10/30 06:52:54;;;;;;;20.70;15.33;;;;;;;13.21;70.05;95638.16;5114400;28;20439;-84
2021/10/30 06:55:22;;;;;;;25.43;14.80;;;;;;;13.22;70.60;95636.38;5114078;28;20475;-84
2021/10/30 06:57:51;;;;;;;14.07;11.63;;;;;;;13.12;70.53;95640.72;5114040;28;20451;-84
2021/10/30 07:00:18;;;;;;;17.17;12.73;;;;;;;13.21;70.79;95629.44;5061494;28;21031;-84
2021/10/30 07:02:47;;;;;;;16.40;12.50;;;;;;;13.25;70.39;95630.84;5114384;28;20440;-84
2021/10/30 07:05:14;;;;;;;19.83;12.30;;;;;;;13.25;69.71;95631.66;5114292;28;20450;-84
2021/10/30 07:07:41;;;;;;;20.37;13.10;;;;;;;13.26;69.97;95633.34;5114334;28;20530;-85
2021/10/30 07:10:09;;;;;;;14.80;11.80;;;;;;;13.29;69.57;95633.09;5114421;28;20451;-84
2021/10/30 07:12:38;;;;;;;18.77;11.40;;;;;;;13.25;70.09;95630.84;5113869;28;20470;-84
2021/10/30 07:15:08;;;;;;;15.23;11.20;;;;;;;13.28;68.84;95627.94;5114370;28;20446;-84
2021/10/30 07:17:35;;;;;;;18.43;11.07;;;;;;;13.29;68.60;95627.81;5114496;28;20443;-85
2021/10/30 07:20:02;;;;;;;14.80;10.50;;;;;;;12.87;68.65;95628.72;5114640;28;20515;-84
2021/10/30 07:22:29;;;;;;;17.73;11.23;;;;;;;12.98;68.63;95629.50;5114596;28;20514;-85
2021/10/30 07:24:56;;;;;;;18.63;8.90;;;;;;;12.93;67.77;95625.56;5114640;28;20546;-85
2021/10/30 07:27:23;;;;;;;11.00;8.00;;;;;;;12.93;67.47;95615.03;5114075;28;20550;-84
2021/10/30 07:29:52;;;;;;;12.97;6.60;;;;;;;12.46;68.27;95626.81;5114448;28;20427;-83
2021/10/30 07:32:20;;;;;;;8.40;6.73;;;;;;;11.88;69.36;95616.50;5114093;28;20455;-84
2021/10/30 07:34:47;;;;;;;13.23;8.90;;;;;;;11.92;71.18;95612.66;5114758;28;20444;-83
2021/10/30 07:37:14;;;;;;;8.10;7.30;;;;;;;11.81;69.80;95614.44;5114940;28;20435;-84
2021/10/30 07:39:41;;;;;;;9.60;7.80;;;;;;;11.79;70.24;95614.56;5114249;28;20833;-83
2021/10/30 07:42:08;;;;;;;12.33;7.10;;;;;;;11.57;71.19;95620.63;5114213;28;20467;-84
2021/10/30 07:44:36;;;;;;;8.83;7.53;;;;;;;11.54;71.75;95612.13;5114538;28;20815;-84
2021/10/30 07:47:04;;;;;;;14.80;8.90;;;;;;;11.66;72.66;95609.41;5115260;28;20809;-85
2021/10/30 07:49:32;;;;;;;10.97;8.20;;;;;;;11.79;73.15;95612.78;5115110;28;20989;-83
2021/10/30 07:51:59;;;;;;;10.50;8.00;;;;;;;11.77;72.56;95614.66;5115348;28;20446;-84
2021/10/30 07:54:26;;;;;;;10.50;7.73;;;;;;;11.71;72.31;95614.31;5134133;28;20448;-83
2021/10/30 07:56:53;;;;;;;9.07;8.17;;;;;;;11.58;73.79;95618.84;5135267;28;20603;-87
2021/10/30 07:59:20;;;;;;;9.33;8.17;;;;;;;11.52;75.48;95614.88;5135264;28;20496;-85
2021/10/30 08:01:50;;;;;;;14.10;9.60;;;;;;;11.70;74.92;95596.84;5134329;28;20972;-85
2021/10/30 08:04:17;;;;;;;10.00;9.00;;;;;;;11.88;74.05;95594.63;5133766;27;20917;-84
2021/10/30 08:06:46;;;;;;;14.80;10.20;;;;;;;11.72;75.01;95598.41;5134229;28;20457;-83
2021/10/30 08:09:13;;;;;;;9.73;8.60;;;;;;;11.72;73.72;95598.41;5135329;27;20970;-84
2021/10/30 08:11:40;;;;;;;12.33;9.30;;;;;;;11.82;73.83;95590.66;5138406;27;20459;-83
2021/10/30 08:14:07;;;;;;;14.33;8.40;;;;;;;11.96;73.48;95602.72;5138453;27;20434;-85
2021/10/30 08:16:34;;;;;;;10.53;8.10;;;;;;;12.05;72.92;95594.09;5139205;27;20465;-84
2021/10/30 08:19:01;;;;;;;10.30;8.70;;;;;;;12.30;72.08;95595.63;5138917;27;20429;-84
2021/10/30 08:24:51;;;;;;;9.97;7.83;;;;;;;12.52;70.43;95589.47;5138301;27;20421;-85
2021/10/30 08:27:18;;;;;;;8.10;7.30;;;;;;;12.57;66.80;95587.28;5137751;27;20569;-85
2021/10/30 08:29:46;;;;;;;16.80;8.80;;;;;;;12.78;65.72;95590.81;5137913;27;20522;-84
2021/10/30 08:32:13;;;;;;;23.23;15.23;;;;;;;13.01;64.93;95592.38;5138004;27;20471;-84
2021/10/30 08:34:41;;;;;;;14.03;8.50;;;;;;;13.02;62.74;95588.78;5138175;27;20510;-83
2021/10/30 08:37:09;;;;;;;10.23;8.77;;;;;;;13.25;62.99;95586.88;5138361;27;20473;-84
2021/10/30 08:39:36;;;;;;;16.63;10.43;;;;;;;13.21;62.57;95582.81;5139573;27;20431;-84
2021/10/30 08:42:06;;;;;;;12.53;9.87;;;;;;;13.35;61.23;95573.75;5141453;27;20470;-84
2021/10/30 08:44:34;;;;;;;11.33;9.23;;;;;;;13.42;60.73;95577.53;5138424;27;20529;-83
2021/10/30 08:47:02;;;;;;;10.60;8.20;;;;;;;13.49;59.41;95576.03;5137823;27;20925;-83
2021/10/30 08:49:31;;;;;;;11.93;8.33;;;;;;;13.64;58.29;95582.66;5137793;27;20546;-84
2021/10/30 08:51:58;;;;;;;10.20;8.97;;;;;;;13.63;57.21;95572.25;5137833;27;20799;-84
2021/10/30 08:54:25;;;;;;;10.73;9.10;;;;;;;13.66;57.31;95577.25;5137616;27;20534;-83
2021/10/30 08:56:52;;;;;;;12.17;9.77;;;;;;;13.72;56.98;95573.25;5138404;27;20459;-84
2021/10/30 08:59:37;;;;;;;13.47;9.23;;;;;;;13.88;56.65;95570.97;5138084;27;20423;-84
2021/10/30 09:02:05;;;;;;;13.23;9.70;;;;;;;13.84;56.81;95565.09;5094396;27;20472;-83
2021/10/30 09:04:32;;;;;;;13.53;9.93;;;;;;;14.02;56.07;95557.38;5146304;27;20477;-84
2021/10/30 09:07:01;;;;;;;13.33;10.67;;;;;;;14.21;56.06;95565.38;5084812;27;20439;-84
2021/10/30 09:09:31;;;;;;;11.70;8.30;;;;;;;14.16;56.94;95557.00;5117664;27;20486;-83
2021/10/30 09:12:00;;;;;;;10.40;7.70;;;;;;;14.20;57.57;95563.69;5098725;28;20443;-83
2021/10/30 09:14:30;;;;;;;10.70;8.47;;;;;;;13.88;57.98;95555.13;5117120;28;20879;-86
2021/10/30 09:17:18;;;;;;;12.90;9.13;;;;;;;13.75;58.57;95557.16;5117429;28;20782;-85
2021/10/30 09:19:47;;;;;;;10.43;9.10;;;;;;;13.60;59.14;95549.63;5117388;28;20807;-83
2021/10/30 09:22:16;;;;;;;11.73;10.20;;;;;;;13.79;59.44;95553.28;5081762;28;20476;-87
2021/10/30 09:25:01;;;;;;;11.83;9.60;;;;;;;13.98;59.02;95542.78;5116707;28;20463;-86
2021/10/30 09:27:48;;;;;;;13.60;9.52;;;;;;;13.97;58.42;95538.50;5153759;27;20464;-85
2021/10/30 09:30:19;;;;;;;13.43;8.90;;;;;;;14.07;57.52;95539.34;5158846;27;20195;-88
2021/10/30 09:32:58;;;;;;;10.60;7.50;;;;;;;13.94;58.42;95534.31;5159950;27;20456;-88
2021/10/30 09:35:30;;;;;;;10.37;9.27;;;;;;;14.07;59.28;95528.78;5159776;27;20467;-88
2021/10/30 09:37:58;;;;;;;13.10;8.63;;;;;;;13.92;58.78;95522.22;5160297;27;20504;-88
2021/10/30 09:40:27;;;;;;;14.20;7.90;;;;;;;13.77;58.55;95528.84;5159196;27;20792;-87
2021/10/30 09:43:07;;;;;;;15.30;9.67;;;;;;;13.89;58.73;95517.22;5143780;27;20473;-85
2021/10/30 09:45:39;;;;;;;9.60;8.50;;;;;;;14.12;58.13;95520.44;5135878;27;20457;-84
2021/10/30 09:48:06;;;;;;;8.93;7.87;;;;;;;14.22;55.21;95511.59;5129458;27;20447;-84
2021/10/30 09:50:33;;;;;;;12.27;9.30;;;;;;;14.20;55.06;95492.44;5121158;27;20457;-86
2021/10/30 09:53:25;;;;;;;9.67;8.60;;;;;;;14.24;55.56;95507.00;5151009;27;20517;-84
2021/10/30 09:55:53;;;;;;;12.33;9.80;;;;;;;14.13;55.54;95507.13;5138008;27;20481;-87
2021/10/30 09:58:31;;;;;;;11.73;9.10;;;;;;;13.99;56.96;95502.25;5140160;27;20811;-86
2021/10/30 10:01:05;;;;;;;12.87;10.30;;;;;;;14.18;58.07;95498.81;5116557;27;20540;-86
2021/10/30 10:03:33;;;;;;;11.83;8.83;;;;;;;14.33;56.71;95496.59;5115382;27;20825;-85
2021/10/30 10:06:05;;;;;;;16.10;8.93;;;;;;;14.51;56.08;95490.53;5095537;28;20444;-86
2021/10/30 10:08:33;;;;;;;9.87;8.00;;;;;;;14.61;55.14;95489.69;5124176;27;20474;-86
2021/10/30 10:11:00;;;;;;;11.67;8.77;;;;;;;14.45;54.37;95484.94;5070728;28;20836;-86
2021/10/30 10:13:28;;;;;;;14.87;6.93;;;;;;;14.50;54.02;95480.94;5115397;27;20454;-86
2021/10/30 10:15:56;;;;;;;9.37;7.63;;;;;;;14.41;53.97;95480.88;5115066;27;20443;-86
2021/10/30 10:18:24;;;;;;;10.30;7.43;;;;;;;14.27;55.40;95479.50;5115094;28;20527;-86
2021/10/30 10:20:52;;;;;;;7.97;7.17;;;;;;;14.23;54.23;95481.59;5115624;28;20512;-86
2021/10/30 10:23:21;;;;;;;11.40;8.27;;;;;;;14.24;55.42;95471.88;5114882;28;20483;-86
2021/10/30 10:25:52;;;;;;;9.80;7.60;;;;;;;14.26;54.58;95476.03;5115117;28;21008;-86
2021/10/30 10:28:22;;;;;;;8.10;7.33;;;;;;;14.26;54.87;95473.38;5116342;28;20439;-86
2021/10/30 10:31:00;;;;;;;8.00;7.03;;;;;;;14.18;54.79;95457.41;5115013;28;21007;-86
2021/10/30 10:33:29;;;;;;;8.17;7.33;;;;;;;14.29;55.16;95458.25;5114843;28;20435;-86
2021/10/30 10:36:22;;;;;;;8.93;6.67;;;;;;;14.38;54.61;95457.41;5114728;28;20439;-86
2021/10/30 10:39:11;;;;;;;11.97;7.87;;;;;;;14.38;54.35;95454.75;5114902;28;20454;-86
2021/10/30 10:41:56;;;;;;;10.80;6.27;;;;;;;14.42;54.08;95453.50;5114706;28;20574;-87
2021/10/30 10:45:00;;;;;;;8.80;6.87;;;;;;;14.45;53.38;95466.47;5114947;28;20446;-87
2021/10/30 10:48:03;;;;;;;7.83;5.60;;;;;;;14.25;53.04;95455.88;5114868;28;20431;-85
2021/10/30 10:50:50;;;;;;;9.60;6.53;;;;;;;14.47;53.83;95440.78;5115088;28;20451;-87
2021/10/30 10:53:19;;;;;;;7.90;7.07;;;;;;;14.45;53.32;95447.97;5032112;28;20443;-86
2021/10/30 10:56:12;;;;;;;12.37;7.83;;;;;;;14.37;53.13;95446.00;5031765;28;20486;-86
2021/10/30 10:59:10;;;;;;;11.63;8.10;;;;;;;14.46;52.78;95441.75;5032582;28;20969;-86
2021/10/30 11:01:55;;;;;;;10.83;7.17;;;;;;;14.49;53.23;95438.81;5033725;28;20451;-86
2021/10/30 11:04:22;;;;;;;7.60;6.10;;;;;;;14.30;53.51;95434.34;4975680;28;20509;-87
2021/10/30 11:06:50;;;;;;;8.50;6.63;;;;;;;14.36;53.24;95427.66;4975213;28;20453;-87
2021/10/30 11:09:17;;;;;;;11.00;8.13;;;;;;;14.44;53.67;95419.91;4976179;28;20933;-87
2021/10/30 11:11:46;;;;;;;7.80;6.77;;;;;;;14.53;53.56;95427.84;4975087;28;20445;-87
2021/10/30 11:14:14;;;;;;;7.80;6.93;;;;;;;14.68;53.12;95428.22;4973626;28;20471;-86
2021/10/30 11:16:43;;;;;;;7.03;6.10;;;;;;;14.51;52.99;95428.94;4973467;28;20446;-86
2021/10/30 11:19:22;;;;;;;8.63;7.73;;;;;;;14.54;51.51;95421.56;4974553;28;21008;-87
2021/10/30 11:21:55;;;;;;;6.43;5.73;;;;;;;14.70;52.51;95426.25;4940556;28;21123;-87
2021/10/30 11:24:29;;;;;;;6.50;5.90;;;;;;;14.54;52.94;95421.56;4972445;28;20589;-86
2021/10/30 11:27:06;;;;;;;15.40;6.60;;;;;;;14.72;53.71;95413.75;4972287;28;20493;-86
2021/10/30 11:29:34;;;;;;;6.80;5.93;;;;;;;14.74;51.53;95422.34;4900151;28;20473;-86
2021/10/30 11:32:04;;;;;;;15.70;6.20;;;;;;;14.71;51.54;95409.44;5011605;28;20459;-87
2021/10/30 11:34:31;;;;;;;7.03;5.20;;;;;;;14.80;50.81;95416.53;5011559;28;20547;-86
2021/10/30 11:37:00;;;;;;;38.37;8.50;;;;;;;14.74;49.57;95411.78;5011464;28;20489;-86
2021/10/30 11:39:31;;;;;;;8.27;5.70;;;;;;;14.68;51.45;95412.38;5011402;28;20456;-86
2021/10/30 11:42:03;;;;;;;7.23;6.53;;;;;;;14.63;51.19;95408.50;5055888;28;20479;-87
2021/10/30 11:44:30;;;;;;;5.40;4.50;;;;;;;14.64;48.71;95405.69;5117664;28;20443;-86
2021/10/30 11:46:57;;;;;;;6.33;5.37;;;;;;;14.65;51.01;95410.00;5118257;28;20445;-86
2021/10/30 11:49:28;;;;;;;7.70;5.43;;;;;;;14.75;51.25;95407.38;5117746;28;20541;-86
2021/10/30 11:52:02;;;;;;;5.67;4.70;;;;;;;14.70;50.93;95399.84;5117844;28;20443;-86
2021/10/30 11:54:29;;;;;;;6.53;4.60;;;;;;;14.75;49.90;95408.19;5117843;28;20442;-86
2021/10/30 11:56:56;;;;;;;6.17;4.77;;;;;;;14.60;48.95;95404.31;5117711;28;20444;-86
2021/10/30 11:59:23;;;;;;;5.30;4.50;;;;;;;14.64;49.89;95407.50;5117956;28;20694;-85
2021/10/30 12:01:50;;;;;;;13.07;5.77;;;;;;;14.72;49.65;95411.09;5118013;28;20663;-84
2021/10/30 12:04:20;;;;;;;6.67;5.60;;;;;;;14.78;49.18;95413.19;5118607;28;20514;-88